sensor_id;sensor_type;location;lat;lon;timestamp;pressure;altitude;pressure_sealevel;temperature;humidity
78665;BME280;67981;51.022;-2.870;2023-07-30T00:01:13;100833.19;;;15.44;91.66
78665;BME280;67981;51.022;-2.870;2023-07-30T00:03:38;100834.06;;;15.44;91.70
78665;BME280;67981;51.022;-2.870;2023-07-30T00:06:03;100847.06;;;15.41;91.63
78665;BME280;67981;51.022;-2.870;2023-07-30T00:08:29;100801.94;;;15.39;91.68
78665;BME280;67981;51.022;-2.870;2023-07-30T00:10:56;100827.00;;;15.33;91.58
78665;BME280;67981;51.022;-2.870;2023-07-30T00:13:22;100814.00;;;15.33;91.99
78665;BME280;67981;51.022;-2.870;2023-07-30T00:15:47;100820.88;;;15.29;92.31
78665;BME280;67981;51.022;-2.870;2023-07-30T00:18:14;100815.66;;;15.26;92.58
78665;BME280;67981;51.022;-2.870;2023-07-30T00:20:39;100822.56;;;15.24;92.78
78665;BME280;67981;51.022;-2.870;2023-07-30T00:23:05;100819.06;;;15.22;93.15
78665;BME280;67981;51.022;-2.870;2023-07-30T00:25:30;100808.59;;;15.12;93.42
78665;BME280;67981;51.022;-2.870;2023-07-30T00:27:55;100816.41;;;15.15;92.99
78665;BME280;67981;51.022;-2.870;2023-07-30T00:30:21;100809.34;;;15.02;93.06
78665;BME280;67981;51.022;-2.870;2023-07-30T00:32:46;100810.22;;;14.99;93.15
78665;BME280;67981;51.022;-2.870;2023-07-30T00:35:11;100809.31;;;14.99;93.66
78665;BME280;67981;51.022;-2.870;2023-07-30T00:37:37;100817.94;;;14.95;94.03
78665;BME280;67981;51.022;-2.870;2023-07-30T00:40:03;100817.06;;;14.93;94.28
78665;BME280;67981;51.022;-2.870;2023-07-30T00:42:29;100818.75;;;14.89;94.54
78665;BME280;67981;51.022;-2.870;2023-07-30T00:44:54;100832.56;;;14.85;94.80
78665;BME280;67981;51.022;-2.870;2023-07-30T00:47:21;100829.06;;;14.80;94.79
78665;BME280;67981;51.022;-2.870;2023-07-30T00:49:47;100833.38;;;14.80;94.80
78665;BME280;67981;51.022;-2.870;2023-07-30T00:52:12;100844.69;;;14.83;94.91
78665;BME280;67981;51.022;-2.870;2023-07-30T00:54:40;100846.34;;;14.78;94.71
78665;BME280;67981;51.022;-2.870;2023-07-30T00:57:05;100829.94;;;14.82;94.62
78665;BME280;67981;51.022;-2.870;2023-07-30T00:59:32;100840.22;;;14.73;94.83
78665;BME280;67981;51.022;-2.870;2023-07-30T01:01:58;100828.94;;;14.70;95.21
78665;BME280;67981;51.022;-2.870;2023-07-30T01:04:24;100845.44;;;14.75;94.98
78665;BME280;67981;51.022;-2.870;2023-07-30T01:06:49;100850.56;;;14.67;95.38
78665;BME280;67981;51.022;-2.870;2023-07-30T01:09:15;100604.72;;;14.75;94.80
78665;BME280;67981;51.022;-2.870;2023-07-30T01:11:40;100628.13;;;14.77;94.77
78665;BME280;67981;51.022;-2.870;2023-07-30T01:14:09;100990.06;;;14.76;94.89
78665;BME280;67981;51.022;-2.870;2023-07-30T01:16:35;100879.25;;;14.78;94.79
78665;BME280;67981;51.022;-2.870;2023-07-30T01:19:00;100910.34;;;14.72;94.57
78665;BME280;67981;51.022;-2.870;2023-07-30T01:21:33;100904.28;;;14.71;94.86
78665;BME280;67981;51.022;-2.870;2023-07-30T01:23:59;100892.09;;;14.66;94.78
78665;BME280;67981;51.022;-2.870;2023-07-30T01:26:27;100905.13;;;14.67;95.06
78665;BME280;67981;51.022;-2.870;2023-07-30T01:28:58;100894.69;;;14.66;94.91
78665;BME280;67981;51.022;-2.870;2023-07-30T01:31:26;100907.72;;;14.69;94.57
78665;BME280;67981;51.022;-2.870;2023-07-30T01:33:54;100694.72;;;14.70;94.69
78665;BME280;67981;51.022;-2.870;2023-07-30T01:36:21;100812.47;;;14.71;94.48
78665;BME280;67981;51.022;-2.870;2023-07-30T01:38:47;100815.09;;;14.72;94.42
78665;BME280;67981;51.022;-2.870;2023-07-30T01:41:14;100810.72;;;14.67;94.19
78665;BME280;67981;51.022;-2.870;2023-07-30T01:43:40;100820.25;;;14.69;94.17
78665;BME280;67981;51.022;-2.870;2023-07-30T01:46:05;100822.03;;;14.70;93.67
78665;BME280;67981;51.022;-2.870;2023-07-30T01:48:30;100822.03;;;14.72;93.63
78665;BME280;67981;51.022;-2.870;2023-07-30T01:50:56;100826.34;;;14.70;93.67
78665;BME280;67981;51.022;-2.870;2023-07-30T01:53:21;100822.84;;;14.68;93.50
78665;BME280;67981;51.022;-2.870;2023-07-30T01:55:47;100821.13;;;14.68;93.56
78665;BME280;67981;51.022;-2.870;2023-07-30T01:58:13;100819.41;;;14.69;93.40
78665;BME280;67981;51.022;-2.870;2023-07-30T02:00:39;100810.72;;;14.68;93.56
78665;BME280;67981;51.022;-2.870;2023-07-30T02:03:04;100819.44;;;14.72;93.50
78665;BME280;67981;51.022;-2.870;2023-07-30T02:05:30;100814.22;;;14.70;93.91
78665;BME280;67981;51.022;-2.870;2023-07-30T02:07:55;100826.41;;;14.79;93.47
78665;BME280;67981;51.022;-2.870;2023-07-30T02:10:21;100827.31;;;14.81;93.17
78665;BME280;67981;51.022;-2.870;2023-07-30T02:12:46;100817.81;;;14.83;93.29
78665;BME280;67981;51.022;-2.870;2023-07-30T02:15:11;100819.53;;;14.82;93.10
78665;BME280;67981;51.022;-2.870;2023-07-30T02:17:37;100812.53;;;14.74;93.24
78665;BME280;67981;51.022;-2.870;2023-07-30T02:20:02;100827.25;;;14.75;93.80
78665;BME280;67981;51.022;-2.870;2023-07-30T02:22:28;100828.16;;;14.77;93.27
78665;BME280;67981;51.022;-2.870;2023-07-30T02:24:53;100826.47;;;14.82;93.86
78665;BME280;67981;51.022;-2.870;2023-07-30T02:27:22;100826.47;;;14.82;93.81
78665;BME280;67981;51.022;-2.870;2023-07-30T02:29:47;100832.53;;;14.84;93.94
78665;BME280;67981;51.022;-2.870;2023-07-30T02:32:13;100827.34;;;14.84;93.82
78665;BME280;67981;51.022;-2.870;2023-07-30T02:34:38;100829.13;;;14.86;93.54
78665;BME280;67981;51.022;-2.870;2023-07-30T02:37:04;100817.88;;;14.87;93.70
78665;BME280;67981;51.022;-2.870;2023-07-30T02:39:29;100821.31;;;14.86;93.56
78665;BME280;67981;51.022;-2.870;2023-07-30T02:41:54;100823.06;;;14.87;93.52
78665;BME280;67981;51.022;-2.870;2023-07-30T02:44:20;100812.69;;;14.89;93.65
78665;BME280;67981;51.022;-2.870;2023-07-30T02:46:45;100809.97;;;14.77;93.57
78665;BME280;67981;51.022;-2.870;2023-07-30T02:49:11;100826.47;;;14.80;93.82
78665;BME280;67981;51.022;-2.870;2023-07-30T02:51:36;100829.94;;;14.82;93.63
78665;BME280;67981;51.022;-2.870;2023-07-30T02:54:04;100825.59;;;14.81;93.83
78665;BME280;67981;51.022;-2.870;2023-07-30T02:56:30;100819.56;;;14.84;94.01
78665;BME280;67981;51.022;-2.870;2023-07-30T02:58:58;100816.91;;;14.79;94.13
78665;BME280;67981;51.022;-2.870;2023-07-30T03:01:23;100818.63;;;14.79;93.99
78665;BME280;67981;51.022;-2.870;2023-07-30T03:03:49;100827.34;;;14.85;94.41
78665;BME280;67981;51.022;-2.870;2023-07-30T03:06:14;100819.53;;;14.81;94.26
78665;BME280;67981;51.022;-2.870;2023-07-30T03:08:42;100807.38;;;14.78;94.09
78665;BME280;67981;51.022;-2.870;2023-07-30T03:11:07;100810.91;;;14.83;94.22
78665;BME280;67981;51.022;-2.870;2023-07-30T03:13:33;100816.06;;;14.80;94.16
78665;BME280;67981;51.022;-2.870;2023-07-30T03:15:58;100819.47;;;14.75;94.38
78665;BME280;67981;51.022;-2.870;2023-07-30T03:18:23;100825.47;;;14.71;94.88
78665;BME280;67981;51.022;-2.870;2023-07-30T03:20:49;100827.22;;;14.72;94.87
78665;BME280;67981;51.022;-2.870;2023-07-30T03:23:14;100820.28;;;14.72;94.92
78665;BME280;67981;51.022;-2.870;2023-07-30T03:25:40;100822.84;;;14.69;94.79
78665;BME280;67981;51.022;-2.870;2023-07-30T03:28:05;100818.53;;;14.70;94.81
78665;BME280;67981;51.022;-2.870;2023-07-30T03:30:30;100826.25;;;14.62;95.02
78665;BME280;67981;51.022;-2.870;2023-07-30T03:32:56;100832.19;;;14.54;95.71
78665;BME280;67981;51.022;-2.870;2023-07-30T03:35:21;100832.16;;;14.49;95.91
78665;BME280;67981;51.022;-2.870;2023-07-30T03:37:46;100844.09;;;14.37;96.10
78665;BME280;67981;51.022;-2.870;2023-07-30T03:40:12;100846.72;;;14.38;96.61
78665;BME280;67981;51.022;-2.870;2023-07-30T03:42:37;100838.78;;;14.28;96.97
78665;BME280;67981;51.022;-2.870;2023-07-30T03:45:03;100845.78;;;14.32;96.70
78665;BME280;67981;51.022;-2.870;2023-07-30T03:47:29;100843.84;;;14.21;97.18
78665;BME280;67981;51.022;-2.870;2023-07-30T03:49:54;100862.91;;;14.22;97.46
78665;BME280;67981;51.022;-2.870;2023-07-30T03:52:19;100862.78;;;14.14;97.97
78665;BME280;67981;51.022;-2.870;2023-07-30T03:54:45;100863.53;;;14.06;98.29
78665;BME280;67981;51.022;-2.870;2023-07-30T03:57:10;100861.66;;;13.96;98.86
78665;BME280;67981;51.022;-2.870;2023-07-30T03:59:35;100864.19;;;13.91;99.21
78665;BME280;67981;51.022;-2.870;2023-07-30T04:02:01;100856.13;;;13.75;99.87
78665;BME280;67981;51.022;-2.870;2023-07-30T04:04:26;100864.00;;;13.81;100.00
78665;BME280;67981;51.022;-2.870;2023-07-30T04:06:52;100872.63;;;13.78;100.00
78665;BME280;67981;51.022;-2.870;2023-07-30T04:09:17;100869.16;;;13.78;100.00
78665;BME280;67981;51.022;-2.870;2023-07-30T04:11:42;100859.53;;;13.72;100.00
78665;BME280;67981;51.022;-2.870;2023-07-30T04:14:08;100874.31;;;13.76;100.00
78665;BME280;67981;51.022;-2.870;2023-07-30T04:16:34;100877.78;;;13.75;100.00
78665;BME280;67981;51.022;-2.870;2023-07-30T04:18:59;100875.97;;;13.71;100.00
78665;BME280;67981;51.022;-2.870;2023-07-30T04:21:25;100869.00;;;13.67;100.00
78665;BME280;67981;51.022;-2.870;2023-07-30T04:23:50;100871.69;;;13.73;100.00
78665;BME280;67981;51.022;-2.870;2023-07-30T04:26:17;100869.88;;;13.69;100.00
78665;BME280;67981;51.022;-2.870;2023-07-30T04:28:42;100873.38;;;13.71;100.00
78665;BME280;67981;51.022;-2.870;2023-07-30T04:31:08;100866.44;;;13.69;100.00
78665;BME280;67981;51.022;-2.870;2023-07-30T04:33:33;100869.72;;;13.60;100.00
78665;BME280;67981;51.022;-2.870;2023-07-30T04:35:59;100882.69;;;13.60;100.00
78665;BME280;67981;51.022;-2.870;2023-07-30T04:38:24;100859.00;;;13.39;100.00
78665;BME280;67981;51.022;-2.870;2023-07-30T04:40:49;100884.38;;;13.58;100.00
78665;BME280;67981;51.022;-2.870;2023-07-30T04:43:15;100888.72;;;13.58;100.00
78665;BME280;67981;51.022;-2.870;2023-07-30T04:45:42;100871.19;;;13.43;100.00
78665;BME280;67981;51.022;-2.870;2023-07-30T04:48:07;100899.09;;;13.58;100.00
78665;BME280;67981;51.022;-2.870;2023-07-30T04:50:33;100897.25;;;13.52;100.00
78665;BME280;67981;51.022;-2.870;2023-07-30T04:52:58;100896.34;;;13.50;100.00
78665;BME280;67981;51.022;-2.870;2023-07-30T04:55:24;100906.66;;;13.47;100.00
78665;BME280;67981;51.022;-2.870;2023-07-30T04:57:49;100891.16;;;13.50;100.00
78665;BME280;67981;51.022;-2.870;2023-07-30T05:00:14;100885.91;;;13.46;100.00
78665;BME280;67981;51.022;-2.870;2023-07-30T05:02:40;100896.41;;;13.55;100.00
78665;BME280;67981;51.022;-2.870;2023-07-30T05:05:05;100884.28;;;13.52;100.00
78665;BME280;67981;51.022;-2.870;2023-07-30T05:07:31;100892.19;;;13.60;100.00
78665;BME280;67981;51.022;-2.870;2023-07-30T05:09:56;100877.41;;;13.54;100.00
78665;BME280;67981;51.022;-2.870;2023-07-30T05:12:22;100874.06;;;13.61;100.00
78665;BME280;67981;51.022;-2.870;2023-07-30T05:14:47;100856.69;;;13.56;100.00
78665;BME280;67981;51.022;-2.870;2023-07-30T05:17:13;100882.84;;;13.69;100.00
78665;BME280;67981;51.022;-2.870;2023-07-30T05:19:38;100861.94;;;13.59;100.00
78665;BME280;67981;51.022;-2.870;2023-07-30T05:22:04;100889.84;;;13.73;100.00
78665;BME280;67981;51.022;-2.870;2023-07-30T05:24:31;100893.41;;;13.80;100.00
78665;BME280;67981;51.022;-2.870;2023-07-30T05:26:56;100892.50;;;13.78;100.00
78665;BME280;67981;51.022;-2.870;2023-07-30T05:29:22;100889.94;;;13.81;100.00
78665;BME280;67981;51.022;-2.870;2023-07-30T05:31:47;100890.84;;;13.81;100.00
78665;BME280;67981;51.022;-2.870;2023-07-30T05:34:12;100904.78;;;13.89;100.00
78665;BME280;67981;51.022;-2.870;2023-07-30T05:36:38;100906.53;;;13.90;100.00
78665;BME280;67981;51.022;-2.870;2023-07-30T05:39:03;100907.41;;;13.91;100.00
78665;BME280;67981;51.022;-2.870;2023-07-30T05:41:29;100898.78;;;13.93;100.00
78665;BME280;67981;51.022;-2.870;2023-07-30T05:43:54;100907.47;;;13.94;100.00
78665;BME280;67981;51.022;-2.870;2023-07-30T05:46:19;100902.28;;;13.95;100.00
78665;BME280;67981;51.022;-2.870;2023-07-30T05:48:45;100902.44;;;14.04;100.00
78665;BME280;67981;51.022;-2.870;2023-07-30T05:51:10;100912.13;;;14.17;100.00
78665;BME280;67981;51.022;-2.870;2023-07-30T05:53:36;100897.47;;;14.19;100.00
78665;BME280;67981;51.022;-2.870;2023-07-30T05:56:01;100901.13;;;14.31;100.00
78665;BME280;67981;51.022;-2.870;2023-07-30T05:58:26;100910.69;;;14.33;100.00
78665;BME280;67981;51.022;-2.870;2023-07-30T06:00:52;100902.00;;;14.31;100.00
78665;BME280;67981;51.022;-2.870;2023-07-30T06:03:18;100900.41;;;14.41;100.00
78665;BME280;67981;51.022;-2.870;2023-07-30T06:05:43;100897.81;;;14.41;100.00
78665;BME280;67981;51.022;-2.870;2023-07-30T06:08:09;100893.50;;;14.41;100.00
78665;BME280;67981;51.022;-2.870;2023-07-30T06:10:35;100898.81;;;14.52;100.00
78665;BME280;67981;51.022;-2.870;2023-07-30T06:13:02;100891.03;;;14.52;100.00
78665;BME280;67981;51.022;-2.870;2023-07-30T06:15:27;100888.44;;;14.52;100.00
78665;BME280;67981;51.022;-2.870;2023-07-30T06:17:53;100896.44;;;14.67;100.00
78665;BME280;67981;51.022;-2.870;2023-07-30T06:20:18;100893.09;;;14.75;100.00
78665;BME280;67981;51.022;-2.870;2023-07-30T06:22:43;100883.47;;;14.68;99.95
78665;BME280;67981;51.022;-2.870;2023-07-30T06:25:09;100891.28;;;14.71;100.00
78665;BME280;67981;51.022;-2.870;2023-07-30T06:27:34;100886.97;;;14.72;99.48
78665;BME280;67981;51.022;-2.870;2023-07-30T06:29:59;100875.72;;;14.73;99.08
78665;BME280;67981;51.022;-2.870;2023-07-30T06:32:25;100880.16;;;14.80;99.34
78665;BME280;67981;51.022;-2.870;2023-07-30T06:34:50;100867.13;;;14.77;98.56
78665;BME280;67981;51.022;-2.870;2023-07-30T06:37:15;100866.22;;;14.75;98.35
78665;BME280;67981;51.022;-2.870;2023-07-30T06:39:41;100871.41;;;14.75;98.63
78665;BME280;67981;51.022;-2.870;2023-07-30T06:42:06;100873.13;;;14.74;98.16
78665;BME280;67981;51.022;-2.870;2023-07-30T06:44:32;100890.47;;;14.74;98.37
78665;BME280;67981;51.022;-2.870;2023-07-30T06:46:57;100891.28;;;14.71;98.71
78665;BME280;67981;51.022;-2.870;2023-07-30T06:49:22;100898.28;;;14.75;98.80
78665;BME280;67981;51.022;-2.870;2023-07-30T06:51:48;100901.72;;;14.76;98.66
78665;BME280;67981;51.022;-2.870;2023-07-30T06:54:13;100892.22;;;14.76;98.55
78665;BME280;67981;51.022;-2.870;2023-07-30T06:56:39;100901.09;;;14.95;98.36
78665;BME280;67981;51.022;-2.870;2023-07-30T06:59:04;100901.06;;;14.92;97.88
78665;BME280;67981;51.022;-2.870;2023-07-30T07:01:29;100902.81;;;14.93;97.77
78665;BME280;67981;51.022;-2.870;2023-07-30T07:03:55;100910.75;;;15.05;97.56
78665;BME280;67981;51.022;-2.870;2023-07-30T07:06:20;100908.19;;;15.09;96.61
78665;BME280;67981;51.022;-2.870;2023-07-30T07:08:46;100912.69;;;15.24;96.65
78665;BME280;67981;51.022;-2.870;2023-07-30T07:11:11;100917.00;;;15.20;96.76
78665;BME280;67981;51.022;-2.870;2023-07-30T07:13:36;100903.94;;;15.16;97.87
78665;BME280;67981;51.022;-2.870;2023-07-30T07:16:02;100913.47;;;15.14;100.00
78665;BME280;67981;51.022;-2.870;2023-07-30T07:18:28;100917.75;;;15.10;100.00
78665;BME280;67981;51.022;-2.870;2023-07-30T07:20:53;100911.63;;;15.04;100.00
78665;BME280;67981;51.022;-2.870;2023-07-30T07:23:19;100923.75;;;15.05;100.00
78665;BME280;67981;51.022;-2.870;2023-07-30T07:25:44;100906.22;;;14.89;100.00
78665;BME280;67981;51.022;-2.870;2023-07-30T07:28:09;100911.41;;;14.86;100.00
78665;BME280;67981;51.022;-2.870;2023-07-30T07:30:35;100912.38;;;14.95;100.00
78665;BME280;67981;51.022;-2.870;2023-07-30T07:33:04;100928.00;;;14.98;100.00
78665;BME280;67981;51.022;-2.870;2023-07-30T07:35:31;100913.28;;;14.97;100.00
78665;BME280;67981;51.022;-2.870;2023-07-30T07:37:57;100926.31;;;15.03;100.00
78665;BME280;67981;51.022;-2.870;2023-07-30T07:40:22;100920.31;;;15.07;100.00
78665;BME280;67981;51.022;-2.870;2023-07-30T07:42:48;100926.50;;;15.18;100.00
78665;BME280;67981;51.022;-2.870;2023-07-30T07:45:13;100924.13;;;15.38;100.00
78665;BME280;67981;51.022;-2.870;2023-07-30T07:47:38;100905.13;;;15.42;100.00
78665;BME280;67981;51.022;-2.870;2023-07-30T07:50:05;100909.53;;;15.47;100.00
78665;BME280;67981;51.022;-2.870;2023-07-30T07:52:30;100922.53;;;15.49;100.00
78665;BME280;67981;51.022;-2.870;2023-07-30T07:54:56;100923.47;;;15.55;100.00
78665;BME280;67981;51.022;-2.870;2023-07-30T07:57:21;100927.72;;;15.47;100.00
78665;BME280;67981;51.022;-2.870;2023-07-30T07:59:47;100932.09;;;15.53;100.00
78665;BME280;67981;51.022;-2.870;2023-07-30T08:02:12;100932.09;;;15.54;100.00
78665;BME280;67981;51.022;-2.870;2023-07-30T08:04:38;100923.44;;;15.51;100.00
78665;BME280;67981;51.022;-2.870;2023-07-30T08:07:04;100918.13;;;15.42;100.00
78665;BME280;67981;51.022;-2.870;2023-07-30T08:09:30;100924.31;;;15.56;100.00
78665;BME280;67981;51.022;-2.870;2023-07-30T08:11:55;100931.38;;;15.66;100.00
78665;BME280;67981;51.022;-2.870;2023-07-30T08:14:21;100922.75;;;15.70;100.00
78665;BME280;67981;51.022;-2.870;2023-07-30T08:16:46;100909.75;;;15.75;100.00
78665;BME280;67981;51.022;-2.870;2023-07-30T08:19:11;100921.16;;;15.89;100.00
78665;BME280;67981;51.022;-2.870;2023-07-30T08:21:37;100917.72;;;15.91;100.00
78665;BME280;67981;51.022;-2.870;2023-07-30T08:24:02;100913.50;;;16.10;100.00
78665;BME280;67981;51.022;-2.870;2023-07-30T08:26:28;100912.78;;;16.33;100.00
78665;BME280;67981;51.022;-2.870;2023-07-30T08:28:53;100911.94;;;16.33;100.00
78665;BME280;67981;51.022;-2.870;2023-07-30T08:31:18;100903.38;;;16.46;99.62
78665;BME280;67981;51.022;-2.870;2023-07-30T08:33:44;100900.00;;;16.65;99.56
78665;BME280;67981;51.022;-2.870;2023-07-30T08:36:09;100892.22;;;16.75;97.80
78665;BME280;67981;51.022;-2.870;2023-07-30T08:38:34;100898.38;;;16.91;98.14
78665;BME280;67981;51.022;-2.870;2023-07-30T08:41:00;100907.09;;;16.96;97.86
78665;BME280;67981;51.022;-2.870;2023-07-30T08:43:25;100892.19;;;16.74;97.50
78665;BME280;67981;51.022;-2.870;2023-07-30T08:45:51;100885.28;;;16.80;98.79
78665;BME280;67981;51.022;-2.870;2023-07-30T08:48:16;100887.03;;;16.83;98.92
78665;BME280;67981;51.022;-2.870;2023-07-30T08:50:42;100884.44;;;16.83;99.15
78665;BME280;67981;51.022;-2.870;2023-07-30T08:53:09;100899.13;;;16.69;99.55
78665;BME280;67981;51.022;-2.870;2023-07-30T08:55:34;100891.28;;;16.58;100.00
78665;BME280;67981;51.022;-2.870;2023-07-30T08:58:04;100894.78;;;16.62;100.00
78665;BME280;67981;51.022;-2.870;2023-07-30T09:00:34;100892.97;;;16.47;100.00
78665;BME280;67981;51.022;-2.870;2023-07-30T09:03:03;100890.41;;;16.61;100.00
78665;BME280;67981;51.022;-2.870;2023-07-30T09:05:29;100880.03;;;16.71;100.00
78665;BME280;67981;51.022;-2.870;2023-07-30T09:07:56;100873.94;;;16.71;100.00
78665;BME280;67981;51.022;-2.870;2023-07-30T09:10:22;100888.78;;;16.90;100.00
78665;BME280;67981;51.022;-2.870;2023-07-30T09:12:55;100873.13;;;16.81;100.00
78665;BME280;67981;51.022;-2.870;2023-07-30T09:15:29;100881.84;;;16.83;100.00
78665;BME280;67981;51.022;-2.870;2023-07-30T09:17:56;100876.66;;;16.95;100.00
78665;BME280;67981;51.022;-2.870;2023-07-30T09:20:21;100876.72;;;17.18;99.94
78665;BME280;67981;51.022;-2.870;2023-07-30T09:22:47;100879.31;;;17.21;100.00
78665;BME280;67981;51.022;-2.870;2023-07-30T09:25:14;100873.25;;;17.28;100.00
78665;BME280;67981;51.022;-2.870;2023-07-30T09:27:41;100873.25;;;17.29;100.00
78665;BME280;67981;51.022;-2.870;2023-07-30T09:30:07;100880.19;;;17.29;100.00
78665;BME280;67981;51.022;-2.870;2023-07-30T09:32:34;100876.75;;;17.30;100.00
78665;BME280;67981;51.022;-2.870;2023-07-30T09:35:09;100868.97;;;17.49;100.00
78665;BME280;67981;51.022;-2.870;2023-07-30T09:37:39;100875.06;;;17.68;100.00
78665;BME280;67981;51.022;-2.870;2023-07-30T09:40:07;100867.22;;;17.56;100.00
78665;BME280;67981;51.022;-2.870;2023-07-30T09:42:33;100857.66;;;17.53;100.00
78665;BME280;67981;51.022;-2.870;2023-07-30T09:45:00;100863.75;;;17.45;100.00
78665;BME280;67981;51.022;-2.870;2023-07-30T09:47:26;100879.41;;;17.60;100.00
78665;BME280;67981;51.022;-2.870;2023-07-30T09:49:53;100876.81;;;17.76;100.00
78665;BME280;67981;51.022;-2.870;2023-07-30T09:52:18;100858.50;;;17.46;100.00
78665;BME280;67981;51.022;-2.870;2023-07-30T09:54:44;100876.78;;;17.70;100.00
78665;BME280;67981;51.022;-2.870;2023-07-30T09:57:10;100867.25;;;17.86;100.00
78665;BME280;67981;51.022;-2.870;2023-07-30T09:59:35;100872.44;;;17.98;100.00
78665;BME280;67981;51.022;-2.870;2023-07-30T10:02:03;100879.41;;;17.87;100.00
78665;BME280;67981;51.022;-2.870;2023-07-30T10:04:30;100865.47;;;17.83;99.99
78665;BME280;67981;51.022;-2.870;2023-07-30T10:07:08;100867.25;;;17.86;100.00
78665;BME280;67981;51.022;-2.870;2023-07-30T10:09:39;100884.63;;;17.88;100.00
78665;BME280;67981;51.022;-2.870;2023-07-30T10:12:16;100868.09;;;17.94;100.00
78665;BME280;67981;51.022;-2.870;2023-07-30T10:14:43;100870.72;;;17.91;100.00
78665;BME280;67981;51.022;-2.870;2023-07-30T10:17:11;100874.16;;;18.06;100.00
78665;BME280;67981;51.022;-2.870;2023-07-30T10:19:37;100881.13;;;18.04;100.00
78665;BME280;67981;51.022;-2.870;2023-07-30T10:22:31;100890.69;;;18.31;100.00
78665;BME280;67981;51.022;-2.870;2023-07-30T10:24:58;100888.94;;;18.41;98.88
78665;BME280;67981;51.022;-2.870;2023-07-30T10:27:25;100877.59;;;18.37;98.04
78665;BME280;67981;51.022;-2.870;2023-07-30T10:35:52;100894.22;;;17.77;100.00
78665;BME280;67981;51.022;-2.870;2023-07-30T10:38:28;100894.22;;;17.76;100.00
78665;BME280;67981;51.022;-2.870;2023-07-30T10:41:20;100901.19;;;17.83;100.00
78665;BME280;67981;51.022;-2.870;2023-07-30T10:43:48;100886.38;;;17.49;100.00
78665;BME280;67981;51.022;-2.870;2023-07-30T10:46:16;100891.56;;;17.43;100.00
78665;BME280;67981;51.022;-2.870;2023-07-30T10:48:43;100908.09;;;17.46;100.00
78665;BME280;67981;51.022;-2.870;2023-07-30T10:51:11;100899.38;;;17.41;100.00
78665;BME280;67981;51.022;-2.870;2023-07-30T10:53:36;100888.91;;;17.35;100.00
78665;BME280;67981;51.022;-2.870;2023-07-30T10:56:06;100888.91;;;17.35;100.00
78665;BME280;67981;51.022;-2.870;2023-07-30T10:58:34;100883.69;;;17.34;100.00
78665;BME280;67981;51.022;-2.870;2023-07-30T11:01:06;100881.09;;;17.26;100.00
78665;BME280;67981;51.022;-2.870;2023-07-30T11:03:32;100891.59;;;17.46;100.00
78665;BME280;67981;51.022;-2.870;2023-07-30T11:06:00;100881.09;;;17.38;100.00
78665;BME280;67981;51.022;-2.870;2023-07-30T11:08:39;100889.84;;;17.49;100.00
78665;BME280;67981;51.022;-2.870;2023-07-30T11:11:06;100908.13;;;17.54;100.00
78665;BME280;67981;51.022;-2.870;2023-07-30T11:13:50;100895.06;;;17.55;100.00
78665;BME280;67981;51.022;-2.870;2023-07-30T11:16:16;100908.16;;;17.75;100.00
78665;BME280;67981;51.022;-2.870;2023-07-30T11:18:43;100903.78;;;17.83;100.00
78665;BME280;67981;51.022;-2.870;2023-07-30T11:21:10;100892.47;;;17.75;100.00
78665;BME280;67981;51.022;-2.870;2023-07-30T11:23:38;100904.66;;;17.67;100.00
78665;BME280;67981;51.022;-2.870;2023-07-30T11:26:05;100904.63;;;17.61;100.00
78665;BME280;67981;51.022;-2.870;2023-07-30T11:28:39;100903.78;;;17.68;100.00
78665;BME280;67981;51.022;-2.870;2023-07-30T11:33:32;100908.16;;;17.73;100.00
78665;BME280;67981;51.022;-2.870;2023-07-30T11:36:00;100913.34;;;17.82;100.00
78665;BME280;67981;51.022;-2.870;2023-07-30T11:38:26;100892.47;;;17.87;100.00
78665;BME280;67981;51.022;-2.870;2023-07-30T11:40:53;100906.41;;;17.92;100.00
78665;BME280;67981;51.022;-2.870;2023-07-30T11:43:20;100905.53;;;17.88;100.00
78665;BME280;67981;51.022;-2.870;2023-07-30T11:45:46;100909.00;;;17.77;100.00
78665;BME280;67981;51.022;-2.870;2023-07-30T11:48:11;100919.47;;;17.81;100.00
78665;BME280;67981;51.022;-2.870;2023-07-30T11:50:50;100913.38;;;17.79;100.00
78665;BME280;67981;51.022;-2.870;2023-07-30T11:53:17;100916.84;;;17.80;100.00
78665;BME280;67981;51.022;-2.870;2023-07-30T11:55:44;100909.00;;;17.75;100.00
78665;BME280;67981;51.022;-2.870;2023-07-30T11:58:11;100920.31;;;17.67;100.00
78665;BME280;67981;51.022;-2.870;2023-07-30T12:00:38;100925.53;;;17.73;100.00
78665;BME280;67981;51.022;-2.870;2023-07-30T12:03:04;100925.53;;;17.73;100.00
78665;BME280;67981;51.022;-2.870;2023-07-30T12:05:35;100914.22;;;17.68;100.00
78665;BME280;67981;51.022;-2.870;2023-07-30T12:08:05;100912.50;;;17.65;100.00
78665;BME280;67981;51.022;-2.870;2023-07-30T12:10:46;100921.16;;;17.70;100.00
78665;BME280;67981;51.022;-2.870;2023-07-30T12:13:20;100941.19;;;17.80;100.00
78665;BME280;67981;51.022;-2.870;2023-07-30T12:15:55;100941.19;;;17.85;100.00
78665;BME280;67981;51.022;-2.870;2023-07-30T12:18:22;100936.84;;;17.87;100.00
78665;BME280;67981;51.022;-2.870;2023-07-30T12:20:49;100929.03;;;17.87;100.00
78665;BME280;67981;51.022;-2.870;2023-07-30T12:23:16;100915.09;;;17.77;100.00
78665;BME280;67981;51.022;-2.870;2023-07-30T12:25:41;100942.06;;;17.87;100.00
78665;BME280;67981;51.022;-2.870;2023-07-30T12:28:07;100944.69;;;17.82;100.00
78665;BME280;67981;51.022;-2.870;2023-07-30T12:30:32;100937.72;;;17.66;100.00
78665;BME280;67981;51.022;-2.870;2023-07-30T12:32:58;100942.06;;;17.69;100.00
78665;BME280;67981;51.022;-2.870;2023-07-30T12:35:23;100939.44;;;17.55;100.00
78665;BME280;67981;51.022;-2.870;2023-07-30T12:37:49;100991.63;;;17.51;100.00
78665;BME280;67981;51.022;-2.870;2023-07-30T12:40:14;100947.28;;;17.51;100.00